createdAt,value
2019-02-26T00:01:05.978Z,36.65
2019-02-26T00:03:55.669Z,33.02
2019-02-26T00:06:47.163Z,37.50
2019-02-26T00:09:35.514Z,35.75
2019-02-26T00:12:26.455Z,33.33
2019-02-26T00:15:16.235Z,34.45
2019-02-26T00:18:07.520Z,33.83
2019-02-26T00:20:58.450Z,33.55
2019-02-26T00:23:48.719Z,33.92
2019-02-26T00:26:38.576Z,37.63
2019-02-26T00:29:29.840Z,36.88
2019-02-26T00:32:19.365Z,32.38
2019-02-26T00:35:09.481Z,32.48
2019-02-26T00:37:58.684Z,32.65
2019-02-26T00:40:47.940Z,31.90
2019-02-26T00:43:37.047Z,34.63
2019-02-26T00:46:28.496Z,34.67
2019-02-26T00:49:19.093Z,35.75
2019-02-26T00:52:08.684Z,33.73
2019-02-26T00:55:00.014Z,38.30
2019-02-26T00:57:49.458Z,37.45
2019-02-26T01:00:38.762Z,39.27
2019-02-26T01:03:27.895Z,33.80
2019-02-26T01:06:16.603Z,32.23
2019-02-26T01:09:09.343Z,33.63
2019-02-26T01:11:58.614Z,31.05
2019-02-26T01:14:48.182Z,33.75
2019-02-26T01:17:39.967Z,33.65
2019-02-26T01:20:30.214Z,35.33
2019-02-26T01:23:21.598Z,38.05
2019-02-26T01:26:12.140Z,36.60
2019-02-26T01:29:01.489Z,33.80
2019-02-26T01:31:51.077Z,36.00
2019-02-26T01:34:40.563Z,36.90
2019-02-26T01:37:32.082Z,37.00
2019-02-26T01:40:23.538Z,35.40
2019-02-26T01:43:11.943Z,34.10
2019-02-26T01:46:01.628Z,34.10
2019-02-26T01:48:50.803Z,32.85
2019-02-26T01:51:39.984Z,32.23
2019-02-26T01:54:30.509Z,34.43
2019-02-26T01:57:19.408Z,35.52
2019-02-26T02:00:19.779Z,34.58
2019-02-26T02:03:09.392Z,36.75
2019-02-26T02:05:58.179Z,38.33
2019-02-26T02:08:48.269Z,34.85
2019-02-26T02:11:38.042Z,36.00
2019-02-26T02:14:28.956Z,36.65
2019-02-26T02:17:17.971Z,37.98
2019-02-26T02:20:18.080Z,34.55
2019-02-26T02:23:05.365Z,33.02
2019-02-26T02:25:59.771Z,35.98
2019-02-26T02:28:46.455Z,33.55
2019-02-26T02:31:37.704Z,36.03
2019-02-26T02:34:29.422Z,32.70
2019-02-26T02:37:18.581Z,34.88
2019-02-26T02:40:11.886Z,34.43
2019-02-26T02:43:04.471Z,33.02
2019-02-26T02:45:55.131Z,35.52
2019-02-26T02:48:43.247Z,32.75
2019-02-26T02:51:34.594Z,34.50
2019-02-26T02:54:23.626Z,36.98
2019-02-26T02:57:13.597Z,36.33
2019-02-26T03:00:02.970Z,35.95
2019-02-26T03:02:53.781Z,36.15
2019-02-26T03:05:45.789Z,34.90
2019-02-26T03:08:34.430Z,34.75
2019-02-26T03:11:23.477Z,34.73
2019-02-26T03:14:13.830Z,35.23
2019-02-26T03:17:02.987Z,37.42
2019-02-26T03:19:55.837Z,35.13
2019-02-26T03:22:46.666Z,34.70
2019-02-26T03:25:34.553Z,34.95
2019-02-26T03:28:24.165Z,35.33
2019-02-26T03:31:12.880Z,33.67
2019-02-26T03:34:08.771Z,34.85
2019-02-26T03:36:53.028Z,35.85
2019-02-26T03:39:41.643Z,34.63
2019-02-26T03:42:30.390Z,36.40
2019-02-26T03:45:23.862Z,36.05
2019-02-26T03:48:10.483Z,35.17
2019-02-26T03:51:01.300Z,38.15
2019-02-26T03:53:51.377Z,37.03
2019-02-26T03:56:40.694Z,37.85
2019-02-26T03:59:30.074Z,37.60
2019-02-26T04:02:20.848Z,35.70
2019-02-26T04:05:15.176Z,38.60
2019-02-26T04:08:05.084Z,35.60
2019-02-26T04:10:55.953Z,36.28
2019-02-26T04:13:45.996Z,35.15
2019-02-26T04:16:35.303Z,37.67
2019-02-26T04:19:26.801Z,36.38
2019-02-26T04:22:33.376Z,37.95
2019-02-26T04:25:29.999Z,33.60
2019-02-26T04:28:30.685Z,35.95
2019-02-26T04:32:09.555Z,35.90
2019-02-26T04:35:01.971Z,35.25
2019-02-26T04:38:18.124Z,34.08
2019-02-26T04:41:11.983Z,34.15
2019-02-26T04:44:09.783Z,34.90
2019-02-26T04:47:02.162Z,35.50
2019-02-26T04:49:50.279Z,35.15
2019-02-26T04:52:41.331Z,35.03
2019-02-26T04:55:34.930Z,33.83
2019-02-26T04:58:22.728Z,35.70
2019-02-26T05:01:13.422Z,35.23
2019-02-26T05:04:02.828Z,35.75
2019-02-26T05:06:52.513Z,36.10
2019-02-26T05:09:41.866Z,32.95
2019-02-26T05:12:33.988Z,33.88
2019-02-26T05:15:23.296Z,34.85
2019-02-26T05:18:12.353Z,34.40
2019-02-26T05:21:02.757Z,34.20
2019-02-26T05:23:52.409Z,34.92
2019-02-26T05:26:42.376Z,35.10
2019-02-26T05:29:31.796Z,33.70
2019-02-26T05:32:21.900Z,34.10
2019-02-26T05:35:12.151Z,35.28
2019-02-26T05:38:06.071Z,34.90
2019-02-26T05:40:55.664Z,32.98
2019-02-26T05:43:49.447Z,35.45
2019-02-26T05:46:35.589Z,34.03
2019-02-26T05:49:24.659Z,32.15
2019-02-26T05:52:14.036Z,33.08
2019-02-26T05:55:03.426Z,33.05
2019-02-26T05:57:52.636Z,35.73
2019-02-26T06:00:42.056Z,33.85
2019-02-26T06:03:31.539Z,34.63
2019-02-26T06:06:20.793Z,34.33
2019-02-26T06:09:09.851Z,34.23
2019-02-26T06:11:58.917Z,32.65
2019-02-26T06:14:48.197Z,32.50
2019-02-26T06:17:40.587Z,34.08
2019-02-26T06:20:31.345Z,32.20
2019-02-26T06:23:19.717Z,31.07
2019-02-26T06:26:13.993Z,33.73
2019-02-26T06:29:00.680Z,33.08
2019-02-26T06:31:50.152Z,33.15
2019-02-26T06:34:38.850Z,33.80
2019-02-26T06:37:29.165Z,33.15
2019-02-26T06:40:19.085Z,32.80
2019-02-26T06:43:08.252Z,33.23
2019-02-26T06:45:57.731Z,34.75
2019-02-26T06:48:46.957Z,34.18
2019-02-26T06:51:35.435Z,32.50
2019-02-26T06:54:26.635Z,34.43
2019-02-26T06:57:15.067Z,33.55
2019-02-26T07:00:09.069Z,33.83
2019-02-26T07:03:01.988Z,31.93
2019-02-26T07:05:48.595Z,30.57
2019-02-26T07:08:38.029Z,31.23
2019-02-26T07:11:28.122Z,32.83
2019-02-26T07:14:17.435Z,33.33
2019-02-26T07:17:06.244Z,32.30
2019-02-26T07:19:57.309Z,34.00
2019-02-26T07:22:48.599Z,33.48
2019-02-26T07:25:39.048Z,32.58
2019-02-26T07:28:27.114Z,31.42
2019-02-26T07:31:16.220Z,33.10
2019-02-26T07:34:05.881Z,33.10
2019-02-26T07:36:54.903Z,34.00
2019-02-26T07:39:45.059Z,34.65
2019-02-26T07:42:35.033Z,34.90
2019-02-26T07:45:27.316Z,34.58
2019-02-26T07:48:18.588Z,35.03
2019-02-26T07:51:06.176Z,36.17
2019-02-26T07:53:56.515Z,35.45
2019-02-26T07:56:46.331Z,37.10
2019-02-26T07:59:36.953Z,35.60
2019-02-26T08:02:27.765Z,36.38
2019-02-26T08:05:18.727Z,35.05
2019-02-26T08:08:06.971Z,37.33
2019-02-26T08:10:56.195Z,35.25
2019-02-26T08:13:45.161Z,37.30
2019-02-26T08:16:34.425Z,36.25
2019-02-26T08:19:29.492Z,35.85
2019-02-26T08:22:14.263Z,37.75
2019-02-26T08:25:04.071Z,37.17
2019-02-26T08:27:54.043Z,38.78
2019-02-26T08:30:45.212Z,37.80
2019-02-26T08:33:34.104Z,37.15
2019-02-26T08:36:23.505Z,37.20
2019-02-26T08:39:15.014Z,36.65
2019-02-26T08:42:10.336Z,37.03
2019-02-26T08:44:59.258Z,38.98
2019-02-26T08:47:48.156Z,38.00
2019-02-26T08:50:39.068Z,38.60
2019-02-26T08:53:29.023Z,38.45
2019-02-26T08:56:18.915Z,39.98
2019-02-26T08:59:08.328Z,39.95
2019-02-26T09:01:57.911Z,38.73
2019-02-26T09:04:47.802Z,37.90
2019-02-26T09:07:38.574Z,39.45
2019-02-26T09:10:28.242Z,39.30
2019-02-26T09:13:18.750Z,38.88
2019-02-26T09:16:08.379Z,40.67
2019-02-26T09:18:57.712Z,39.67
2019-02-26T09:21:47.779Z,40.80
2019-02-26T09:24:37.481Z,39.30
2019-02-26T09:27:27.209Z,36.55
2019-02-26T09:30:21.143Z,36.90
2019-02-26T09:33:11.157Z,38.63
2019-02-26T09:36:01.102Z,37.17
2019-02-26T09:38:51.465Z,38.40
2019-02-26T09:41:44.929Z,38.50
2019-02-26T09:44:33.980Z,37.23
2019-02-26T09:47:26.167Z,37.33
2019-02-26T09:50:17.558Z,38.38
2019-02-26T09:53:06.593Z,35.70
2019-02-26T09:55:56.019Z,36.20
2019-02-26T09:58:46.514Z,37.08
2019-02-26T10:01:37.714Z,36.85
2019-02-26T10:04:26.992Z,36.28
2019-02-26T10:07:17.246Z,37.83
2019-02-26T10:10:14.123Z,36.33
2019-02-26T10:13:04.813Z,37.45
2019-02-26T10:15:58.258Z,35.45
2019-02-26T10:18:46.827Z,35.80
2019-02-26T10:21:37.533Z,36.20
2019-02-26T10:24:29.743Z,33.13
2019-02-26T10:27:22.330Z,32.42
2019-02-26T10:30:20.038Z,33.75
2019-02-26T10:33:09.302Z,32.42
2019-02-26T10:35:58.148Z,32.95
2019-02-26T10:38:47.011Z,34.67
2019-02-26T10:41:37.428Z,33.15
2019-02-26T10:44:27.426Z,33.48
2019-02-26T10:47:16.369Z,33.55
2019-02-26T10:50:13.059Z,32.75
2019-02-26T10:53:09.535Z,32.05
2019-02-26T10:55:53.951Z,33.67
2019-02-26T10:58:43.163Z,33.13
2019-02-26T11:01:33.677Z,32.60
2019-02-26T11:04:34.259Z,30.30
2019-02-26T11:07:14.859Z,33.70
2019-02-26T11:10:06.775Z,32.93
2019-02-26T11:12:57.057Z,33.28
2019-02-26T11:15:48.860Z,31.52
2019-02-26T11:18:39.865Z,33.75
2019-02-26T11:21:28.611Z,31.27
2019-02-26T11:24:17.743Z,30.80
2019-02-26T11:27:06.598Z,30.52
2019-02-26T11:29:57.812Z,29.75
2019-02-26T11:32:46.654Z,29.72
2019-02-26T11:35:35.847Z,26.68
2019-02-26T11:38:25.004Z,26.02
2019-02-26T11:41:14.248Z,25.80
2019-02-26T11:44:07.183Z,26.95
2019-02-26T11:46:56.285Z,27.93
2019-02-26T11:49:46.704Z,28.07
2019-02-26T11:52:36.427Z,25.20
2019-02-26T11:55:29.177Z,25.12
2019-02-26T11:58:19.887Z,27.20
2019-02-26T12:01:08.707Z,25.27
2019-02-26T12:04:03.224Z,28.90
2019-02-26T12:06:48.767Z,28.77
2019-02-26T12:09:40.558Z,26.75
2019-02-26T12:12:30.935Z,27.20
2019-02-26T12:15:19.471Z,22.82
2019-02-26T12:18:10.143Z,23.80
2019-02-26T12:21:00.699Z,25.17
2019-02-26T12:23:50.583Z,24.15
2019-02-26T12:26:42.313Z,22.25
2019-02-26T12:29:30.722Z,23.60
2019-02-26T12:32:22.331Z,23.73
2019-02-26T12:35:12.068Z,25.70
2019-02-26T12:38:17.545Z,25.68
2019-02-26T12:40:53.406Z,24.07
2019-02-26T12:43:46.203Z,26.05
2019-02-26T12:46:33.826Z,22.48
2019-02-26T12:49:22.797Z,22.17
2019-02-26T12:52:11.978Z,23.18
2019-02-26T12:55:04.301Z,21.15
2019-02-26T12:57:52.795Z,23.32
2019-02-26T13:00:42.288Z,22.15
2019-02-26T13:03:31.729Z,23.47
2019-02-26T13:06:22.826Z,23.05
2019-02-26T13:09:12.932Z,23.12
2019-02-26T13:12:02.906Z,25.55
2019-02-26T13:14:54.579Z,24.35
2019-02-26T13:17:45.203Z,24.82
2019-02-26T13:20:34.199Z,25.00
2019-02-26T13:23:22.943Z,23.98
2019-02-26T13:26:14.412Z,24.27
2019-02-26T13:29:02.939Z,23.95
2019-02-26T13:31:56.484Z,23.75
2019-02-26T13:34:42.771Z,22.35
2019-02-26T13:37:35.541Z,21.87
2019-02-26T13:40:25.180Z,21.45
2019-02-26T13:43:14.547Z,21.85
2019-02-26T13:46:03.361Z,23.38
2019-02-26T13:48:53.071Z,22.60
2019-02-26T13:51:41.843Z,24.92
2019-02-26T13:54:31.121Z,26.70
2019-02-26T13:57:20.505Z,24.98
2019-02-26T14:00:15.551Z,27.02
2019-02-26T14:03:04.894Z,23.10
2019-02-26T14:05:53.717Z,26.15
2019-02-26T14:08:42.993Z,26.33
2019-02-26T15:55:33.418Z,28.92
2019-02-26T15:58:22.650Z,28.25
2019-02-26T16:01:12.862Z,28.87
2019-02-26T16:04:02.735Z,26.75
2019-02-26T16:06:52.248Z,28.38
2019-02-26T16:09:41.718Z,29.55
2019-02-26T16:12:30.798Z,29.27
2019-02-26T16:15:20.566Z,32.00
2019-02-26T16:18:09.129Z,30.00
2019-02-26T16:20:58.177Z,33.58
2019-02-26T16:23:47.112Z,34.45
2019-02-26T16:26:38.441Z,29.65
2019-02-26T16:29:27.715Z,29.50
2019-02-26T16:32:16.896Z,29.60
2019-02-26T16:35:06.460Z,29.92
2019-02-26T16:37:56.145Z,33.55
2019-02-26T16:40:45.127Z,31.33
2019-02-26T16:43:34.380Z,33.08
2019-02-26T16:46:23.431Z,32.10
2019-02-26T16:49:12.722Z,29.85
2019-02-26T16:52:01.895Z,31.80
2019-02-26T16:54:50.835Z,33.18
2019-02-26T16:57:40.024Z,31.97
2019-02-26T17:00:33.132Z,33.65
2019-02-26T17:03:22.327Z,32.08
2019-02-26T17:06:11.268Z,31.15
2019-02-26T17:09:00.477Z,30.40
2019-02-26T17:11:49.539Z,29.70
2019-02-26T17:14:38.835Z,29.95
2019-02-26T17:17:28.080Z,30.00
2019-02-26T17:20:17.033Z,29.90
2019-02-26T17:23:06.376Z,30.25
2019-02-26T17:25:55.491Z,29.42
2019-02-26T17:28:44.637Z,29.90
2019-02-26T17:31:34.109Z,30.15
2019-02-26T17:34:23.672Z,32.05
2019-02-26T17:37:12.612Z,29.27
2019-02-26T17:40:03.281Z,30.02
2019-02-26T17:42:53.678Z,30.10
2019-02-26T17:45:43.323Z,33.23
2019-02-26T17:48:43.051Z,31.85
2019-02-26T17:51:23.770Z,28.85
2019-02-26T17:54:12.667Z,31.12
2019-02-26T17:57:01.868Z,30.12
2019-02-26T17:59:52.753Z,33.42
2019-02-26T18:02:41.988Z,30.48
2019-02-26T18:05:31.405Z,29.40
2019-02-26T18:08:20.532Z,31.85
2019-02-26T18:11:09.936Z,33.33
2019-02-26T18:14:00.219Z,30.37
2019-02-26T18:16:50.278Z,30.32
2019-02-26T18:19:39.598Z,31.27
2019-02-26T18:22:28.159Z,34.85
2019-02-26T18:25:20.675Z,36.58
2019-02-26T18:28:09.506Z,28.23
2019-02-26T18:30:58.908Z,31.57
2019-02-26T18:33:48.282Z,30.95
2019-02-26T18:36:37.433Z,31.30
2019-02-26T18:39:27.072Z,30.57
2019-02-26T18:42:16.378Z,28.85
2019-02-26T18:45:09.759Z,33.10
2019-02-26T18:47:59.025Z,31.77
2019-02-26T18:50:48.001Z,32.30
2019-02-26T18:53:37.349Z,33.90
2019-02-26T18:56:26.627Z,31.35
2019-02-26T18:59:15.692Z,30.37
2019-02-26T19:02:04.729Z,29.90
2019-02-26T19:04:54.332Z,35.23
2019-02-26T19:07:43.701Z,39.50
2019-02-26T19:10:32.676Z,32.60
2019-02-26T19:13:21.645Z,33.67
2019-02-26T19:16:11.004Z,31.48
2019-02-26T19:18:59.587Z,34.92
2019-02-26T19:21:48.701Z,33.73
2019-02-26T19:24:38.293Z,32.42
2019-02-26T19:27:26.897Z,33.98
2019-02-26T19:30:20.865Z,29.35
2019-02-26T19:33:10.005Z,30.88
2019-02-26T19:35:59.723Z,33.20
2019-02-26T19:38:49.037Z,28.38
2019-02-26T19:41:38.225Z,29.15
2019-02-26T19:44:27.807Z,45.12
2019-02-26T19:47:16.907Z,29.05
2019-02-26T19:50:11.838Z,27.82
2019-02-26T19:53:02.449Z,30.82
2019-02-26T19:55:53.121Z,29.80
2019-02-26T19:58:41.959Z,32.93
2019-02-26T20:01:31.310Z,34.20
2019-02-26T20:04:20.495Z,36.80
2019-02-26T20:07:08.946Z,31.68
2019-02-26T20:09:58.630Z,36.33
2019-02-26T20:12:48.554Z,36.38
2019-02-26T20:15:37.646Z,33.80
2019-02-26T20:18:27.066Z,38.08
2019-02-26T20:21:16.827Z,36.58
2019-02-26T20:24:07.575Z,32.10
2019-02-26T20:26:56.766Z,34.48
2019-02-26T20:29:46.454Z,32.00
2019-02-26T20:32:36.061Z,33.50
2019-02-26T20:35:26.011Z,30.65
2019-02-26T20:38:16.859Z,29.72
2019-02-26T20:41:06.186Z,30.75
2019-02-26T20:43:55.645Z,37.93
2019-02-26T20:46:45.551Z,28.23
2019-02-26T20:49:35.244Z,32.50
2019-02-26T20:52:24.585Z,31.37
2019-02-26T20:55:23.595Z,29.35
2019-02-26T20:58:12.827Z,40.80
2019-02-26T21:01:02.438Z,35.25
2019-02-26T21:03:51.303Z,39.25
2019-02-26T21:06:40.672Z,41.48
2019-02-26T21:09:29.510Z,35.25
2019-02-26T21:12:20.312Z,42.65
2019-02-26T21:15:25.173Z,35.50
2019-02-26T21:18:13.978Z,38.23
2019-02-26T21:21:03.304Z,45.85
2019-02-26T21:23:52.321Z,52.75
2019-02-26T21:26:41.847Z,42.45
2019-02-26T21:29:30.708Z,45.43
2019-02-26T21:32:19.672Z,46.53
2019-02-26T21:35:10.752Z,45.15
2019-02-26T21:37:59.817Z,49.08
2019-02-26T21:40:51.927Z,46.60
2019-02-26T21:43:39.683Z,30.92
2019-02-26T21:46:28.870Z,44.25
2019-02-26T21:49:17.837Z,38.08
2019-02-26T21:52:08.940Z,40.33
2019-02-26T21:55:00.408Z,47.80
2019-02-26T21:57:48.616Z,45.40
2019-02-26T22:00:39.019Z,38.02
2019-02-26T22:03:29.105Z,32.60
2019-02-26T22:06:18.245Z,39.15
2019-02-26T22:09:07.321Z,29.42
2019-02-26T22:11:56.603Z,38.45
2019-02-26T22:14:45.322Z,41.88
2019-02-26T22:17:35.039Z,28.57
2019-02-26T22:20:35.809Z,29.23
2019-02-26T22:23:15.316Z,27.50
2019-02-26T22:26:04.346Z,32.40
2019-02-26T22:28:53.856Z,28.83
2019-02-26T22:31:42.722Z,38.13
2019-02-26T22:34:31.664Z,37.65
2019-02-26T22:37:21.054Z,40.70
2019-02-26T22:40:12.836Z,39.20
2019-02-26T22:43:02.048Z,30.52
2019-02-26T22:45:50.603Z,46.18
2019-02-26T22:48:39.707Z,36.17
2019-02-26T22:51:28.644Z,45.05
2019-02-26T22:54:17.485Z,34.23
2019-02-26T22:57:06.245Z,28.92
2019-02-26T22:59:55.153Z,30.65
2019-02-26T23:02:44.474Z,28.75
2019-02-26T23:05:33.205Z,32.93
2019-02-26T23:08:22.599Z,45.83
2019-02-26T23:11:13.499Z,39.90
2019-02-26T23:14:04.978Z,33.25
2019-02-26T23:16:54.296Z,34.10
2019-02-26T23:19:43.466Z,37.85
2019-02-26T23:22:32.394Z,27.67
2019-02-26T23:25:21.801Z,34.95
2019-02-26T23:28:10.883Z,30.25
2019-02-26T23:31:00.457Z,38.88
2019-02-26T23:33:49.817Z,40.88
2019-02-26T23:36:38.844Z,37.53
2019-02-26T23:39:28.661Z,27.30
2019-02-26T23:42:17.772Z,30.17
2019-02-26T23:45:12.734Z,26.62
2019-02-26T23:48:01.902Z,34.00
2019-02-26T23:50:51.574Z,28.57
2019-02-26T23:53:40.727Z,29.07
2019-02-26T23:56:29.868Z,27.93
2019-02-26T23:59:18.732Z,30.62
